Terminal Aerodrome Forecast
Issued by NWS Grand Forks, ND

Home | Current Version | Previous Version | Graphics & Text | Print | Product List | Glossary On
Versions: 1 2 3 4 5 6 7 8 9 10 11 12 13 14 15
000
FTUS43 KFGF 241600 AAA
TAFGFK
TAF AMD
KGFK 241617Z 2416/2512 34022G28KT P6SM SCT025
     FM242000 34018G24KT P6SM SCT015
     FM250000 33008KT P6SM SCT250
     FM250600 26005KT P6SM OVC050
     FM251000 25005KT P6SM OVC025=

USA.gov is the U.S. government's official web portal to all federal, state and local government web resources and services.